createdAt,value
2018-11-12T00:01:13.211Z,12.45
2018-11-12T00:06:09.351Z,12.47
2018-11-12T00:11:06.044Z,12.46
2018-11-12T00:16:01.689Z,12.43
2018-11-12T00:20:57.163Z,12.29
2018-11-12T00:25:53.392Z,12.32
2018-11-12T00:30:49.108Z,12.22
2018-11-12T00:35:44.708Z,12.31
2018-11-12T00:40:40.735Z,12.27
2018-11-12T00:45:36.347Z,12.24
2018-11-12T00:50:33.153Z,12.20
2018-11-12T00:55:28.578Z,12.28
2018-11-12T01:00:25.562Z,12.27
2018-11-12T01:05:21.452Z,12.22
2018-11-12T01:10:18.395Z,12.28
2018-11-12T01:15:14.451Z,12.24
2018-11-12T01:20:10.282Z,12.28
2018-11-12T01:25:07.213Z,12.13
2018-11-12T01:30:03.499Z,12.17
2018-11-12T01:35:00.188Z,12.03
2018-11-12T01:39:56.704Z,12.17
2018-11-12T01:44:52.175Z,12.07
2018-11-12T01:49:48.028Z,12.10
2018-11-12T01:54:43.868Z,12.02
2018-11-12T01:59:39.873Z,12.04
2018-11-12T02:04:35.724Z,12.04
2018-11-12T02:09:31.535Z,11.95
2018-11-12T02:14:27.545Z,12.04
2018-11-12T02:19:23.990Z,11.95
2018-11-12T02:24:19.946Z,12.02
2018-11-12T02:29:15.677Z,12.06
2018-11-12T02:34:11.477Z,12.07
2018-11-12T02:39:07.587Z,12.02
2018-11-12T02:44:03.290Z,11.95
2018-11-12T02:48:58.786Z,11.99
2018-11-12T02:53:54.528Z,12.02
2018-11-12T02:58:51.057Z,12.04
2018-11-12T03:03:46.855Z,11.97
2018-11-12T03:08:42.847Z,12.00
2018-11-12T03:13:38.454Z,12.07
2018-11-12T03:18:33.829Z,12.17
2018-11-12T03:23:29.938Z,12.07
2018-11-12T03:28:25.537Z,12.12
2018-11-12T03:33:21.634Z,12.12
2018-11-12T03:38:17.293Z,12.07
2018-11-12T03:43:14.127Z,12.13
2018-11-12T03:48:09.506Z,12.09
2018-11-12T03:53:06.421Z,12.02
2018-11-12T03:58:02.971Z,11.97
2018-11-12T04:02:58.288Z,11.84
2018-11-12T04:07:53.973Z,11.97
2018-11-12T04:12:49.682Z,11.86
2018-11-12T04:17:46.114Z,11.87
2018-11-12T04:22:42.876Z,11.84
2018-11-12T04:27:39.323Z,11.97
2018-11-12T04:32:34.769Z,11.87
2018-11-12T04:37:30.323Z,11.87
2018-11-12T04:42:26.307Z,11.77
2018-11-12T04:47:23.061Z,11.83
2018-11-12T04:52:19.665Z,11.78
2018-11-12T04:57:15.079Z,11.68
2018-11-12T05:02:11.393Z,11.59
2018-11-12T05:07:06.841Z,11.52
2018-11-12T05:12:03.555Z,11.59
2018-11-12T05:16:59.927Z,11.60
2018-11-12T05:21:56.470Z,11.59
2018-11-12T05:26:52.115Z,11.60
2018-11-12T05:31:47.739Z,11.48
2018-11-12T05:36:43.572Z,11.62
2018-11-12T05:41:39.971Z,11.66
2018-11-12T05:46:35.766Z,11.69
2018-11-12T05:51:32.739Z,11.81
2018-11-12T05:56:28.106Z,11.81
2018-11-12T06:01:23.806Z,11.77
2018-11-12T06:06:19.531Z,11.69
2018-11-12T06:11:15.162Z,11.72
2018-11-12T06:16:11.099Z,11.81
2018-11-12T06:21:07.027Z,11.69
2018-11-12T06:26:03.208Z,11.55
2018-11-12T06:30:58.866Z,11.50
2018-11-12T06:35:55.022Z,11.36
2018-11-12T06:40:50.814Z,11.55
2018-11-12T06:45:46.494Z,11.70
2018-11-12T06:50:43.385Z,11.63
2018-11-12T06:55:39.984Z,11.78
2018-11-12T07:00:35.501Z,11.72
2018-11-12T07:05:31.197Z,11.73
2018-11-12T07:10:26.712Z,11.62
2018-11-12T07:15:23.517Z,11.68
2018-11-12T07:20:20.254Z,11.55
2018-11-12T07:25:15.933Z,11.65
2018-11-12T07:30:11.851Z,11.73
2018-11-12T07:35:07.880Z,11.78
2018-11-12T07:40:04.392Z,11.81
2018-11-12T07:44:59.847Z,11.81
2018-11-12T07:49:56.774Z,11.77
2018-11-12T07:54:53.372Z,11.66
2018-11-12T07:59:48.790Z,11.59
2018-11-12T08:04:44.508Z,11.48
2018-11-12T08:09:40.249Z,11.55
2018-11-12T08:14:36.035Z,11.54
2018-11-12T08:19:31.958Z,11.62
2018-11-12T08:24:28.588Z,11.52
2018-11-12T08:29:24.112Z,11.51
2018-11-12T08:34:20.048Z,11.54
2018-11-12T08:39:16.928Z,11.59
2018-11-12T08:44:12.432Z,11.62
2018-11-12T08:49:08.271Z,11.65
2018-11-12T08:54:03.916Z,11.62
2018-11-12T08:58:59.837Z,11.62
2018-11-12T09:03:56.794Z,11.62
2018-11-12T09:08:53.377Z,11.55
2018-11-12T09:13:48.884Z,11.59
2018-11-12T09:18:45.934Z,11.73
2018-11-12T09:23:41.607Z,11.70
2018-11-12T09:28:37.636Z,11.70
2018-11-12T09:33:34.507Z,11.84
2018-11-12T09:38:29.685Z,11.86
2018-11-12T09:43:25.598Z,11.78
2018-11-12T09:48:21.686Z,11.99
2018-11-12T09:53:17.539Z,12.10
2018-11-12T09:58:14.202Z,12.18
2018-11-12T10:03:10.887Z,12.15
2018-11-12T10:08:09.154Z,12.18
2018-11-12T10:13:08.032Z,12.21
2018-11-12T10:18:07.355Z,12.20
2018-11-12T10:23:04.814Z,12.29
2018-11-12T10:28:00.478Z,12.45
2018-11-12T10:32:57.731Z,12.40
2018-11-12T10:37:54.881Z,12.37
2018-11-12T10:42:50.331Z,12.53
2018-11-12T10:47:46.243Z,12.54
2018-11-12T10:52:41.888Z,12.53
2018-11-12T10:57:38.368Z,12.54
2018-11-12T11:02:34.166Z,12.65
2018-11-12T11:07:30.077Z,12.67
2018-11-12T11:12:25.865Z,12.76
2018-11-12T11:17:23.014Z,12.82
2018-11-12T11:22:18.614Z,12.79
2018-11-12T11:27:14.426Z,12.86
2018-11-12T11:32:10.569Z,12.90
2018-11-12T11:37:06.824Z,13.04
2018-11-12T11:42:02.652Z,13.01
2018-11-12T11:46:59.133Z,13.09
2018-11-12T11:51:55.287Z,13.19
2018-11-12T11:56:51.439Z,13.23
2018-11-12T12:01:47.481Z,13.15
2018-11-12T12:06:44.749Z,13.38
2018-11-12T12:11:41.793Z,13.44
2018-11-12T12:16:37.468Z,13.44
2018-11-12T12:21:33.560Z,13.50
2018-11-12T12:26:29.216Z,13.44
2018-11-12T12:31:24.856Z,13.52
2018-11-12T12:36:21.257Z,13.53
2018-11-12T12:41:18.253Z,13.41
2018-11-12T12:46:14.035Z,13.33
2018-11-12T12:51:09.774Z,13.37
2018-11-12T12:56:05.931Z,13.44
2018-11-12T13:01:01.639Z,13.42
2018-11-12T13:05:57.448Z,13.30
2018-11-12T13:10:54.250Z,13.25
2018-11-12T13:15:50.131Z,13.25
2018-11-12T13:20:45.918Z,13.23
2018-11-12T13:25:41.882Z,13.18
2018-11-12T13:30:39.386Z,13.08
2018-11-12T13:35:35.383Z,13.04
2018-11-12T13:40:31.360Z,12.97
2018-11-12T13:45:27.576Z,13.01
2018-11-12T13:50:23.504Z,12.93
2018-11-12T13:55:20.253Z,12.83
2018-11-12T14:00:15.780Z,12.78
2018-11-12T14:05:11.583Z,12.82
2018-11-12T14:10:07.448Z,12.70
2018-11-12T14:15:03.250Z,12.80
2018-11-12T14:19:59.218Z,12.72
2018-11-12T14:24:56.415Z,12.79
2018-11-12T14:29:51.829Z,12.76
2018-11-12T14:34:47.688Z,12.80
2018-11-12T14:39:43.764Z,12.78
2018-11-12T14:44:40.541Z,12.80
2018-11-12T14:49:36.428Z,12.72
2018-11-12T14:54:32.008Z,12.75
2018-11-12T14:59:28.090Z,12.73
2018-11-12T15:04:23.791Z,12.68
2018-11-12T15:09:20.425Z,12.68
2018-11-12T15:14:16.030Z,12.72
2018-11-12T15:19:11.852Z,12.72
2018-11-12T15:24:08.277Z,12.76
2018-11-12T15:29:04.009Z,12.73
2018-11-12T15:34:00.549Z,12.70
2018-11-12T15:38:56.292Z,12.72
2018-11-12T15:43:52.779Z,12.60
2018-11-12T15:48:48.640Z,12.65
2018-11-12T15:53:44.601Z,12.61
2018-11-12T15:58:40.235Z,12.68
2018-11-12T16:03:36.128Z,12.58
2018-11-12T16:08:32.929Z,12.68
2018-11-12T16:13:29.573Z,12.62
2018-11-12T16:18:25.134Z,12.58
2018-11-12T16:23:20.997Z,12.54
2018-11-12T16:28:16.745Z,12.55
2018-11-12T16:33:12.689Z,12.54
2018-11-12T16:38:08.562Z,12.50
2018-11-12T16:43:04.190Z,12.46
2018-11-12T16:47:59.959Z,12.40
2018-11-12T16:52:56.682Z,12.39
2018-11-12T16:57:52.354Z,12.50
2018-11-12T17:02:47.837Z,12.55
2018-11-12T17:07:43.716Z,12.57
2018-11-12T17:12:40.064Z,12.60
2018-11-12T17:17:35.625Z,12.53
2018-11-12T17:22:32.708Z,12.55
2018-11-12T17:27:28.303Z,12.42
2018-11-12T17:32:25.471Z,12.46
2018-11-12T17:37:22.098Z,12.45
2018-11-12T17:42:17.574Z,12.40
2018-11-12T17:47:13.085Z,12.36
2018-11-12T17:52:09.834Z,12.42
2018-11-12T17:57:07.147Z,12.39
2018-11-12T18:02:04.135Z,12.39
2018-11-12T18:06:59.980Z,12.37
2018-11-12T18:11:55.754Z,12.36
2018-11-12T18:16:51.493Z,12.43
2018-11-12T18:21:47.373Z,12.35
2018-11-12T18:26:43.774Z,12.29
2018-11-12T18:31:39.678Z,12.29
2018-11-12T18:36:35.511Z,12.22
2018-11-12T18:41:30.998Z,12.10
2018-11-12T18:46:27.711Z,12.10
2018-11-12T18:51:24.409Z,12.04
2018-11-12T18:56:20.101Z,12.09
2018-11-12T19:01:15.770Z,12.07
2018-11-12T19:06:12.261Z,12.02
2018-11-12T19:11:08.226Z,12.13
2018-11-12T19:16:04.136Z,12.07
2018-11-12T19:20:59.720Z,12.15
2018-11-12T19:25:56.569Z,12.03
2018-11-12T19:30:52.106Z,12.06
2018-11-12T19:35:48.029Z,12.07
2018-11-12T19:40:43.762Z,12.00
2018-11-12T19:45:39.743Z,12.04
2018-11-12T19:50:35.520Z,12.03
2018-11-12T19:55:31.126Z,12.00
2018-11-12T20:00:27.115Z,11.99
2018-11-12T20:05:23.155Z,11.91
2018-11-12T20:10:19.125Z,11.86
2018-11-12T20:15:14.993Z,11.88
2018-11-12T20:20:10.548Z,11.95
2018-11-12T20:25:06.328Z,11.84
2018-11-12T20:30:02.411Z,11.88
2018-11-12T20:34:58.126Z,11.87
2018-11-12T20:39:55.059Z,11.80
2018-11-12T20:44:50.778Z,11.70
2018-11-12T20:49:46.719Z,11.81
2018-11-12T20:54:43.641Z,11.73
2018-11-12T20:59:39.234Z,11.68
2018-11-12T21:04:36.880Z,11.75
2018-11-12T21:09:32.436Z,11.68
2018-11-12T21:14:28.414Z,11.72
2018-11-12T21:19:24.217Z,11.68
2018-11-12T21:24:20.252Z,11.54
2018-11-12T21:29:17.053Z,11.57
2018-11-12T21:34:13.858Z,11.54
2018-11-12T21:39:09.307Z,11.52
2018-11-12T21:44:05.090Z,11.62
2018-11-12T21:49:01.610Z,11.47
2018-11-12T21:53:57.391Z,11.55
2018-11-12T21:58:53.361Z,11.52
2018-11-12T22:03:49.215Z,11.44
2018-11-12T22:08:46.143Z,11.52
2018-11-12T22:13:41.837Z,11.52
2018-11-12T22:18:38.059Z,11.51
2018-11-12T22:23:33.343Z,11.45
2018-11-12T22:28:29.171Z,11.45
2018-11-12T22:33:25.026Z,11.36
2018-11-12T22:38:20.921Z,11.33
2018-11-12T22:43:17.968Z,11.36
2018-11-12T22:48:13.581Z,11.44
2018-11-12T22:53:10.375Z,11.37
2018-11-12T22:58:06.970Z,11.48
2018-11-12T23:03:02.120Z,11.45
2018-11-12T23:07:58.177Z,11.43
2018-11-12T23:12:53.971Z,11.43
2018-11-12T23:17:49.699Z,11.51
2018-11-12T23:22:45.398Z,11.35
2018-11-12T23:27:41.976Z,11.45
2018-11-12T23:32:37.063Z,11.47
2018-11-12T23:37:33.148Z,11.43
2018-11-12T23:42:28.848Z,11.44
2018-11-12T23:47:24.919Z,11.33
2018-11-12T23:52:20.787Z,11.32
2018-11-12T23:57:17.366Z,11.40
